Andover, Iowa
Current Conditions -  °F | °C
As of 2:15 PM on Monday 24 Nov 2014 (Local Time) from KSFY Reporting Station
Haze Haze  
Wind Chill: 14°   Ceiling: 1400
Heat Index: 27°   Visibility: 5mi
Dew Point: 22°   Wind: 17mph
Humidity: 84%   Direction: 260°W
Pressure: 29.53"   Gusts: 26mph
Location:  41.98°N, 90.25°W
Report Text: KSFY 242015Z AUTO 26015G23KT 5SM HZ OVC014 M03/M05 A2953 RMK AO2 T10291053
Loading
Personal Weather Stations






























Interactive Weather Map New forecast layout! Learn more

10-Day Weather Forecast

Advertisements
Track Severe Weather on mobile